Time;durP1;ratioP1;P1;durP2;ratioP2;P2;SDS_P1;SDS_P2;PMS_P1;PMS_P2;Temp;Humidity;BMP_temperature;BMP_pressure;BME280_temperature;BME280_humidity;BME280_pressure;Samples;Min_cycle;Max_cycle;Signal;HPM_P1;HPM_P2
2023/06/15 00:01:43;;;;;;;5.32;3.47;;;18.00;88.00;;;;;;7837577;28;20304;-90
2023/06/15 00:05:28;;;;;;;3.97;3.47;;;17.90;88.00;;;;;;7825355;28;20218;-90
2023/06/15 00:09:14;;;;;;;4.78;3.58;;;17.90;88.30;;;;;;7834530;28;20214;-90
2023/06/15 00:13:00;;;;;;;4.05;3.40;;;17.80;88.30;;;;;;7806744;28;20261;-90
2023/06/15 00:16:45;;;;;;;4.85;3.00;;;17.70;88.50;;;;;;7832501;28;20739;-90
2023/06/15 00:20:31;;;;;;;3.00;2.70;;;17.70;88.60;;;;;;7837416;28;20205;-90
2023/06/15 00:24:17;;;;;;;3.50;3.20;;;17.60;88.70;;;;;;7836441;28;20253;-91
2023/06/15 00:28:22;;;;;;;5.03;2.97;;;17.60;89.80;;;;;;7857793;28;21175;-90
2023/06/15 00:32:07;;;;;;;4.55;3.63;;;17.60;89.20;;;;;;7837186;28;20186;-90
2023/06/15 00:36:05;;;;;;;4.57;3.60;;;17.50;89.40;;;;;;7837947;28;20243;-90
2023/06/15 00:39:51;;;;;;;4.50;3.83;;;17.60;89.60;;;;;;7833265;28;20174;-90
2023/06/15 00:43:37;;;;;;;7.32;4.00;;;17.50;90.20;;;;;;7838416;28;20218;-90
2023/06/15 00:47:23;;;;;;;6.00;4.20;;;17.50;89.90;;;;;;7841288;28;20584;-91
2023/06/15 00:51:09;;;;;;;4.47;3.75;;;17.50;90.00;;;;;;7842703;28;20205;-89
2023/06/15 00:54:55;;;;;;;5.45;3.55;;;17.50;90.00;;;;;;7842595;28;20281;-89
2023/06/15 00:58:41;;;;;;;5.07;3.53;;;17.50;90.10;;;;;;7842222;28;20189;-89
2023/06/15 01:02:29;;;;;;;4.18;3.40;;;17.40;90.10;;;;;;7842370;28;20217;-89
2023/06/15 01:06:15;;;;;;;4.07;3.45;;;17.40;90.10;;;;;;7841687;28;20224;-89
2023/06/15 01:10:01;;;;;;;6.20;3.67;;;17.40;90.20;;;;;;7842417;28;20205;-88
2023/06/15 01:13:49;;;;;;;3.80;3.38;;;17.30;90.20;;;;;;7842075;28;20213;-89
2023/06/15 01:17:37;;;;;;;4.82;3.47;;;17.30;90.30;;;;;;7841732;28;20181;-89
2023/06/15 01:21:30;;;;;;;3.80;3.40;;;17.30;90.40;;;;;;7841717;28;20182;-89
2023/06/15 01:25:35;;;;;;;4.22;3.67;;;17.30;90.40;;;;;;7841793;28;20204;-89
2023/06/15 01:29:21;;;;;;;4.80;3.35;;;17.20;90.60;;;;;;7841920;28;20205;-89
2023/06/15 01:33:07;;;;;;;4.75;3.75;;;17.20;90.70;;;;;;7841400;28;20182;-89
2023/06/15 01:36:52;;;;;;;4.20;3.80;;;17.10;90.80;;;;;;7841293;28;20255;-88
2023/06/15 01:40:42;;;;;;;4.80;3.88;;;17.10;90.80;;;;;;7841107;28;20182;-89
2023/06/15 01:44:29;;;;;;;4.13;3.20;;;17.10;90.90;;;;;;7841501;28;20253;-89
2023/06/15 01:48:14;;;;;;;4.80;3.50;;;17.10;91.00;;;;;;7841088;28;20182;-88
2023/06/15 01:52:00;;;;;;;4.05;3.58;;;17.00;91.00;;;;;;7840630;28;20209;-89
2023/06/15 01:55:46;;;;;;;4.05;3.65;;;17.10;91.10;;;;;;7841125;28;20196;-89
2023/06/15 01:59:32;;;;;;;3.47;3.17;;;17.10;91.10;;;;;;7840873;28;20186;-89
2023/06/15 02:03:17;;;;;;;4.53;4.07;;;17.00;91.20;;;;;;7840254;28;20612;-89
2023/06/15 02:07:03;;;;;;;4.05;3.65;;;17.00;91.30;;;;;;7840458;28;20297;-89
2023/06/15 02:10:49;;;;;;;5.05;4.38;;;17.00;91.40;;;;;;7840660;28;20293;-89
2023/06/15 02:14:35;;;;;;;4.57;4.10;;;16.90;91.40;;;;;;7840457;28;20190;-89
2023/06/15 02:18:21;;;;;;;5.55;4.05;;;16.90;91.50;;;;;;7839954;28;20174;-89
2023/06/15 02:22:07;;;;;;;7.90;4.10;;;16.90;91.60;;;;;;7840514;28;20178;-89
2023/06/15 02:25:52;;;;;;;5.07;4.57;;;16.90;91.70;;;;;;7840077;28;20224;-89
2023/06/15 02:29:38;;;;;;;3.83;3.42;;;16.90;91.80;;;;;;7840041;28;20704;-89
2023/06/15 02:33:25;;;;;;;6.35;4.38;;;16.80;91.80;;;;;;7840041;28;20202;-89
2023/06/15 02:37:11;;;;;;;5.25;4.20;;;16.80;92.00;;;;;;7839506;28;20227;-89
2023/06/15 02:40:56;;;;;;;6.75;4.80;;;16.80;92.00;;;;;;7839689;28;20663;-89
2023/06/15 02:44:42;;;;;;;5.95;4.57;;;16.80;92.10;;;;;;7839298;28;20281;-89
2023/06/15 02:48:28;;;;;;;7.50;5.00;;;16.70;92.10;;;;;;7839132;28;20182;-89
2023/06/15 02:52:14;;;;;;;6.50;5.60;;;16.70;92.20;;;;;;7839572;28;20271;-89
2023/06/15 02:56:02;;;;;;;11.75;6.18;;;16.70;92.10;;;;;;7838663;28;20201;-89
2023/06/15 02:59:49;;;;;;;7.22;5.55;;;16.60;92.20;;;;;;7838286;28;20177;-89
2023/06/15 03:03:34;;;;;;;11.50;5.85;;;16.60;92.20;;;;;;7838765;28;20206;-89
2023/06/15 03:07:20;;;;;;;9.40;5.40;;;16.60;92.30;;;;;;7838849;28;20200;-89
2023/06/15 03:11:06;;;;;;;6.70;4.55;;;16.50;92.40;;;;;;7838944;28;20659;-88
2023/06/15 03:14:52;;;;;;;5.95;4.28;;;16.50;92.50;;;;;;7838522;28;20603;-89
2023/06/15 03:18:38;;;;;;;7.80;5.13;;;16.60;92.50;;;;;;7838526;28;20178;-89
2023/06/15 03:22:25;;;;;;;6.18;4.90;;;16.60;92.50;;;;;;7838941;28;20424;-89
2023/06/15 03:26:11;;;;;;;8.43;5.32;;;16.50;92.60;;;;;;7838773;28;20251;-88
2023/06/15 03:29:56;;;;;;;6.28;5.45;;;16.50;92.60;;;;;;7838188;28;20743;-89
2023/06/15 03:33:42;;;;;;;7.82;5.70;;;16.50;92.70;;;;;;7837796;28;20571;-89
2023/06/15 03:37:28;;;;;;;5.95;5.13;;;16.40;92.70;;;;;;7837916;28;20175;-90
2023/06/15 03:41:14;;;;;;;8.13;5.57;;;16.40;92.80;;;;;;7838377;28;20185;-89
2023/06/15 03:45:00;;;;;;;7.55;5.40;;;16.40;92.80;;;;;;7837440;28;20209;-89
2023/06/15 03:48:45;;;;;;;6.47;5.70;;;16.40;92.90;;;;;;7837972;28;20593;-89
2023/06/15 03:52:33;;;;;;;6.82;5.85;;;16.40;92.90;;;;;;7837937;28;20186;-89
2023/06/15 03:56:19;;;;;;;10.23;6.65;;;16.30;93.00;;;;;;7837703;28;20190;-89
2023/06/15 04:00:07;;;;;;;6.50;5.20;;;16.30;93.10;;;;;;7837247;28;20188;-89
2023/06/15 04:03:54;;;;;;;6.47;5.20;;;16.30;93.10;;;;;;7837225;28;20628;-89
2023/06/15 04:07:44;;;;;;;6.60;5.20;;;16.30;93.20;;;;;;7836067;28;20296;-90
2023/06/15 04:11:39;;;;;;;6.95;5.75;;;16.30;93.20;;;;;;7867034;28;20216;-90
2023/06/15 04:15:25;;;;;;;7.68;6.13;;;16.30;93.20;;;;;;7875642;28;20708;-90
2023/06/15 04:19:10;;;;;;;6.45;5.30;;;16.30;93.20;;;;;;7875228;28;20204;-90
2023/06/15 04:22:57;;;;;;;6.57;5.63;;;16.30;93.20;;;;;;7875086;28;20181;-90
2023/06/15 04:27:01;;;;;;;6.93;5.28;;;16.30;93.40;;;;;;7875035;28;20216;-90
2023/06/15 04:31:10;;;;;;;7.70;5.70;;;16.20;93.90;;;;;;7847972;28;20210;-90
2023/06/15 04:35:06;;;;;;;7.70;5.30;;;16.20;93.70;;;;;;7843665;28;20198;-90
2023/06/15 04:38:51;;;;;;;7.32;5.90;;;16.20;93.60;;;;;;7843149;28;20639;-90
2023/06/15 04:42:40;;;;;;;8.73;6.88;;;16.10;93.80;;;;;;7843307;28;20658;-90
2023/06/15 04:46:27;;;;;;;8.27;5.93;;;16.00;94.20;;;;;;7842745;28;20208;-88
2023/06/15 04:50:13;;;;;;;13.85;7.90;;;16.00;94.30;;;;;;7842720;28;20201;-90
2023/06/15 04:54:00;;;;;;;7.40;6.43;;;15.90;95.00;;;;;;7841917;28;20217;-89
2023/06/15 04:57:46;;;;;;;8.52;5.90;;;15.70;95.30;;;;;;7842271;28;20206;-89
2023/06/15 05:01:31;;;;;;;8.27;6.20;;;15.70;95.30;;;;;;7842160;28;20189;-89
2023/06/15 05:05:17;;;;;;;6.97;5.75;;;15.70;95.40;;;;;;7842387;28;20214;-88
2023/06/15 05:09:03;;;;;;;9.10;6.22;;;15.80;95.30;;;;;;7841961;28;20197;-88
2023/06/15 05:12:48;;;;;;;6.30;5.65;;;15.90;95.10;;;;;;7841389;28;20237;-88
2023/06/15 05:16:34;;;;;;;7.50;6.07;;;15.90;94.80;;;;;;7840705;28;20197;-88
2023/06/15 05:20:20;;;;;;;11.05;6.40;;;16.00;94.80;;;;;;7840982;28;20193;-88
2023/06/15 05:24:06;;;;;;;7.55;6.18;;;15.90;95.60;;;;;;7841653;28;20221;-89
2023/06/15 05:27:51;;;;;;;14.13;6.90;;;15.80;95.80;;;;;;7840834;28;20178;-89
2023/06/15 05:31:37;;;;;;;9.90;6.03;;;15.80;96.10;;;;;;7840644;28;20206;-89
2023/06/15 05:35:23;;;;;;;7.65;6.18;;;15.80;95.80;;;;;;7840882;28;20201;-87
2023/06/15 05:39:09;;;;;;;10.35;7.30;;;15.80;96.30;;;;;;7841022;28;20182;-87
2023/06/15 05:42:56;;;;;;;13.77;9.20;;;15.70;97.10;;;;;;7840553;28;20547;-89
2023/06/15 05:46:42;;;;;;;12.43;7.68;;;15.50;98.50;;;;;;7840845;28;20181;-88
2023/06/15 05:50:28;;;;;;;8.82;6.32;;;15.30;98.70;;;;;;7840873;28;20205;-88
2023/06/15 05:54:13;;;;;;;9.48;6.18;;;15.40;98.40;;;;;;7839274;28;20341;-88
2023/06/15 05:57:59;;;;;;;8.48;5.78;;;15.50;97.80;;;;;;7840274;28;20173;-89
2023/06/15 06:01:45;;;;;;;8.10;6.45;;;15.60;97.50;;;;;;7840386;28;20184;-89
2023/06/15 06:05:31;;;;;;;7.85;6.25;;;15.70;97.60;;;;;;7840041;28;20249;-89
2023/06/15 06:09:18;;;;;;;8.55;6.10;;;15.70;97.70;;;;;;7845061;28;20685;-88
2023/06/15 06:13:04;;;;;;;9.02;6.55;;;15.70;97.30;;;;;;7845733;28;20243;-88
2023/06/15 06:16:50;;;;;;;7.80;6.15;;;15.80;97.80;;;;;;7846131;28;20178;-88
2023/06/15 06:20:36;;;;;;;7.15;6.03;;;15.70;98.10;;;;;;7839683;28;20232;-87
2023/06/15 06:24:21;;;;;;;7.35;5.95;;;15.70;97.80;;;;;;7840205;28;20205;-89
2023/06/15 06:28:07;;;;;;;9.57;5.93;;;15.70;97.70;;;;;;7839602;28;20214;-88
2023/06/15 06:31:52;;;;;;;7.50;5.75;;;15.80;97.30;;;;;;7839359;28;20605;-88
2023/06/15 06:35:38;;;;;;;10.07;7.32;;;15.90;97.50;;;;;;7838632;28;20217;-88
2023/06/15 06:39:24;;;;;;;9.13;6.70;;;15.90;97.40;;;;;;7838497;28;20178;-88
2023/06/15 06:43:10;;;;;;;9.02;6.93;;;15.80;99.00;;;;;;7838349;28;20174;-88
2023/06/15 06:46:56;;;;;;;8.57;6.28;;;15.70;99.20;;;;;;7840020;28;20173;-88
2023/06/15 06:50:41;;;;;;;10.98;7.03;;;15.70;99.10;;;;;;7837946;28;20208;-89
2023/06/15 06:54:27;;;;;;;7.43;5.93;;;15.70;99.90;;;;;;7824493;28;20209;-89
2023/06/15 06:58:13;;;;;;;12.25;6.88;;;15.70;99.80;;;;;;7838509;28;20174;-89
2023/06/15 07:01:58;;;;;;;10.40;6.97;;;15.80;99.90;;;;;;7838734;28;20189;-91
2023/06/15 07:05:44;;;;;;;9.18;6.95;;;15.70;99.90;;;;;;7838753;28;20810;-89
2023/06/15 07:09:30;;;;;;;8.20;6.72;;;15.70;99.90;;;;;;7838080;28;20610;-89
2023/06/15 07:13:16;;;;;;;9.05;7.30;;;15.70;99.90;;;;;;7838390;28;20226;-89
2023/06/15 07:17:02;;;;;;;9.05;7.25;;;15.70;99.90;;;;;;7838222;28;20655;-89
2023/06/15 07:20:53;;;;;;;8.80;6.53;;;15.80;99.90;;;;;;7838396;28;20182;-89
2023/06/15 07:24:40;;;;;;;7.90;7.07;;;15.90;99.90;;;;;;7837950;28;20228;-90
2023/06/15 07:28:25;;;;;;;15.60;7.07;;;16.00;99.90;;;;;;7840001;28;20182;-89
2023/06/15 07:32:11;;;;;;;9.50;6.45;;;16.10;99.90;;;;;;7838224;28;20210;-89
2023/06/15 07:35:57;;;;;;;12.13;6.18;;;16.20;99.90;;;;;;7838140;28;20267;-89
2023/06/15 07:39:42;;;;;;;9.95;5.82;;;16.30;99.90;;;;;;7837545;28;20182;-89
2023/06/15 07:43:28;;;;;;;10.10;6.13;;;16.40;99.90;;;;;;7831065;28;20206;-89
2023/06/15 07:47:14;;;;;;;9.95;6.18;;;16.50;99.90;;;;;;7837175;28;20209;-89
2023/06/15 07:51:00;;;;;;;9.27;5.75;;;16.50;99.90;;;;;;7837097;28;20214;-89
2023/06/15 07:54:46;;;;;;;9.25;6.63;;;16.60;99.90;;;;;;7837842;28;20230;-89
2023/06/15 07:58:31;;;;;;;10.95;7.20;;;16.70;99.90;;;;;;7837514;28;20178;-90
2023/06/15 08:02:17;;;;;;;10.93;6.40;;;16.70;99.90;;;;;;7837318;28;20332;-90
2023/06/15 08:06:02;;;;;;;12.10;6.20;;;16.70;99.90;;;;;;7836891;28;20213;-89
2023/06/15 08:09:48;;;;;;;11.13;5.80;;;16.90;99.90;;;;;;7837276;28;20205;-89
2023/06/15 08:13:34;;;;;;;9.43;5.68;;;17.00;99.90;;;;;;7837009;28;20683;-89
2023/06/15 08:17:20;;;;;;;10.88;5.60;;;17.10;99.90;;;;;;7836776;28;20208;-90
2023/06/15 08:21:05;;;;;;;9.27;5.38;;;17.10;99.90;;;;;;7837313;28;20651;-89
2023/06/15 08:24:51;;;;;;;10.00;5.45;;;17.20;99.90;;;;;;7837079;28;20296;-90
2023/06/15 08:28:36;;;;;;;9.60;6.10;;;17.30;99.90;;;;;;7836571;28;20186;-89
2023/06/15 08:32:23;;;;;;;8.27;5.78;;;17.30;99.90;;;;;;7836801;28;20202;-89
2023/06/15 08:36:08;;;;;;;6.85;5.80;;;17.30;99.90;;;;;;7836854;28;20237;-89
2023/06/15 08:39:56;;;;;;;10.50;6.25;;;17.30;99.90;;;;;;7836885;28;20227;-90
2023/06/15 08:43:45;;;;;;;11.07;6.57;;;17.50;99.90;;;;;;7829741;28;20213;-89
2023/06/15 08:47:34;;;;;;;9.98;6.38;;;17.60;99.90;;;;;;7836898;28;20554;-90
2023/06/15 08:51:22;;;;;;;18.58;7.10;;;17.70;99.90;;;;;;7836872;28;20671;-90
2023/06/15 08:55:10;;;;;;;10.85;6.90;;;17.80;99.90;;;;;;7840777;28;20545;-90
2023/06/15 08:58:56;;;;;;;13.52;7.15;;;17.80;99.90;;;;;;7841488;28;20213;-89
2023/06/15 09:02:46;;;;;;;9.98;7.25;;;17.90;99.70;;;;;;7842143;28;20189;-90
2023/06/15 09:06:31;;;;;;;12.90;6.25;;;18.00;99.80;;;;;;7841768;28;20301;-89
2023/06/15 09:10:21;;;;;;;12.80;6.60;;;18.10;99.90;;;;;;7842297;28;20202;-89
2023/06/15 09:14:09;;;;;;;10.32;5.93;;;18.30;99.60;;;;;;7842059;28;20683;-90
2023/06/15 09:18:00;;;;;;;12.00;7.18;;;18.40;98.90;;;;;;7841174;28;20527;-90
2023/06/15 09:21:51;;;;;;;11.48;6.32;;;18.60;98.40;;;;;;7842151;28;20257;-90
2023/06/15 09:25:37;;;;;;;13.88;6.53;;;18.70;97.90;;;;;;7841434;28;20194;-90
2023/06/15 09:29:22;;;;;;;12.27;5.85;;;18.80;98.20;;;;;;7833317;28;20205;-90
2023/06/15 09:33:13;;;;;;;9.30;5.30;;;18.90;96.90;;;;;;7841097;28;20178;-90
2023/06/15 09:36:58;;;;;;;11.63;6.07;;;19.00;95.80;;;;;;7841500;28;20213;-90
2023/06/15 09:40:44;;;;;;;9.57;4.95;;;19.20;96.50;;;;;;7841862;28;20674;-90
2023/06/15 09:44:40;;;;;;;9.63;5.10;;;19.50;93.90;;;;;;7841243;28;20232;-89
2023/06/15 09:48:26;;;;;;;10.48;5.10;;;19.60;94.10;;;;;;7840835;28;20255;-90
2023/06/15 09:52:13;;;;;;;12.50;5.80;;;19.60;94.50;;;;;;7838358;28;20232;-90
2023/06/15 09:56:06;;;;;;;10.23;5.50;;;19.70;93.40;;;;;;7842163;28;20198;-90
2023/06/15 09:59:52;;;;;;;9.95;5.07;;;19.80;94.30;;;;;;7835792;28;20189;-90
2023/06/15 10:03:39;;;;;;;8.43;5.55;;;19.80;94.90;;;;;;7840465;28;20296;-89
2023/06/15 10:07:25;;;;;;;10.35;5.63;;;20.00;94.50;;;;;;7839744;28;20194;-89
2023/06/15 10:11:13;;;;;;;7.78;5.05;;;20.10;93.20;;;;;;7839567;28;20206;-90
2023/06/15 10:15:10;;;;;;;12.23;5.25;;;20.20;93.30;;;;;;7832446;28;20213;-89
2023/06/15 10:19:02;;;;;;;11.50;5.03;;;20.30;93.30;;;;;;7810172;28;20162;-89
2023/06/15 10:23:04;;;;;;;5.88;4.85;;;20.40;92.50;;;;;;7809256;28;20174;-89
2023/06/15 10:26:50;;;;;;;7.97;4.63;;;20.60;91.90;;;;;;7808922;28;20187;-89
2023/06/15 10:30:45;;;;;;;7.80;4.75;;;20.70;90.60;;;;;;7830826;28;20756;-89
2023/06/15 10:35:03;;;;;;;8.00;5.00;;;20.70;88.00;;;;;;7836373;28;20288;-89
2023/06/15 10:39:12;;;;;;;8.55;4.95;;;20.70;89.50;;;;;;7829584;28;20198;-90
2023/06/15 10:43:01;;;;;;;5.88;4.75;;;20.90;90.20;;;;;;7840275;28;20158;-90
2023/06/15 10:46:47;;;;;;;6.63;4.85;;;21.00;87.30;;;;;;7838302;28;20186;-89
2023/06/15 10:50:48;;;;;;;7.53;5.03;;;21.10;89.30;;;;;;7824622;28;20287;-90
2023/06/15 10:54:35;;;;;;;9.98;4.50;;;21.20;84.80;;;;;;7827789;28;20202;-90
2023/06/15 10:58:22;;;;;;;12.98;4.88;;;21.20;85.60;;;;;;7834847;28;20567;-90
2023/06/15 11:02:31;;;;;;;9.48;4.95;;;21.40;83.90;;;;;;7837907;28;20197;-89
2023/06/15 11:06:19;;;;;;;7.18;5.35;;;21.40;82.00;;;;;;7837999;28;20229;-89
2023/06/15 11:10:16;;;;;;;10.15;4.78;;;21.50;83.10;;;;;;7837519;28;20208;-90
2023/06/15 11:14:04;;;;;;;10.02;5.63;;;21.60;83.50;;;;;;7838214;28;20288;-89
2023/06/15 11:17:55;;;;;;;7.90;4.45;;;21.80;82.90;;;;;;7838085;28;20225;-89
2023/06/15 11:21:44;;;;;;;6.80;4.72;;;21.90;82.50;;;;;;7836333;28;20186;-89
2023/06/15 11:25:30;;;;;;;10.23;4.70;;;21.90;80.10;;;;;;7838079;28;20248;-89
2023/06/15 11:29:25;;;;;;;9.10;4.82;;;22.00;79.20;;;;;;7837786;28;20210;-90
2023/06/15 11:33:12;;;;;;;8.05;4.55;;;22.00;79.90;;;;;;7837576;28;20162;-89
2023/06/15 11:36:59;;;;;;;5.75;4.45;;;22.10;79.20;;;;;;7837904;28;20194;-89
2023/06/15 11:40:47;;;;;;;6.10;5.00;;;22.30;79.70;;;;;;7835133;28;20235;-89
2023/06/15 11:44:33;;;;;;;5.97;4.20;;;22.50;77.20;;;;;;7837316;28;20205;-89
2023/06/15 11:48:19;;;;;;;9.48;4.50;;;22.60;75.70;;;;;;7822979;28;20182;-90
2023/06/15 11:52:05;;;;;;;7.20;4.70;;;22.30;74.20;;;;;;7806289;28;20241;-89
2023/06/15 11:55:51;;;;;;;8.60;4.63;;;22.10;75.30;;;;;;7809968;28;20254;-90
2023/06/15 11:59:38;;;;;;;12.50;4.30;;;22.10;75.50;;;;;;7836638;28;20596;-90
2023/06/15 12:03:26;;;;;;;11.68;4.78;;;22.10;77.70;;;;;;7838671;28;20204;-90
2023/06/15 12:07:12;;;;;;;13.68;5.15;;;21.90;85.20;;;;;;7826675;28;20260;-89
2023/06/15 12:10:59;;;;;;;28.83;4.65;;;21.70;90.60;;;;;;7811188;28;20210;-90
2023/06/15 12:14:45;;;;;;;7.80;3.92;;;21.20;93.00;;;;;;7837181;28;20273;-89
2023/06/15 12:18:30;;;;;;;6.72;3.70;;;21.00;92.10;;;;;;7835861;28;20174;-88
2023/06/15 12:22:16;;;;;;;6.30;3.25;;;20.80;94.00;;;;;;7835886;28;20546;-88
2023/06/15 12:26:03;;;;;;;4.78;3.63;;;20.80;94.20;;;;;;7836520;28;20560;-90
2023/06/15 12:29:51;;;;;;;4.35;2.92;;;20.90;95.30;;;;;;7839573;28;20201;-89
2023/06/15 12:33:41;;;;;;;8.77;3.38;;;20.90;97.60;;;;;;7840012;28;20292;-89
2023/06/15 12:37:30;;;;;;;5.25;3.20;;;21.00;98.60;;;;;;7843133;28;20173;-89
2023/06/15 12:41:22;;;;;;;4.60;3.38;;;21.00;97.20;;;;;;7842788;28;20186;-89
2023/06/15 12:45:10;;;;;;;5.65;3.95;;;20.90;96.30;;;;;;7842765;28;20263;-89
2023/06/15 12:48:57;;;;;;;8.18;3.90;;;20.80;94.40;;;;;;7844478;28;20187;-88
2023/06/15 12:52:42;;;;;;;9.45;3.72;;;20.80;94.70;;;;;;7843535;28;20190;-89
2023/06/15 12:56:28;;;;;;;8.48;3.80;;;20.70;93.00;;;;;;7840783;28;20205;-89
2023/06/15 13:00:14;;;;;;;8.00;4.85;;;20.70;92.40;;;;;;7864688;28;20266;-89
2023/06/15 13:04:00;;;;;;;8.23;3.88;;;20.70;92.20;;;;;;7840117;28;20194;-89
2023/06/15 13:07:46;;;;;;;6.47;4.45;;;21.00;93.30;;;;;;7840481;28;20281;-89
2023/06/15 13:11:32;;;;;;;4.63;3.85;;;21.10;93.10;;;;;;7841529;28;20280;-88
2023/06/15 13:15:18;;;;;;;8.35;4.00;;;21.10;91.80;;;;;;7840112;28;20624;-88
2023/06/15 13:19:03;;;;;;;10.70;4.78;;;21.10;92.00;;;;;;7840531;28;20547;-88
2023/06/15 13:22:50;;;;;;;4.80;4.03;;;21.10;91.90;;;;;;7839264;28;20174;-88
2023/06/15 13:26:36;;;;;;;4.50;3.80;;;21.20;91.10;;;;;;7839820;28;20202;-87
2023/06/15 13:30:22;;;;;;;7.13;3.88;;;21.30;91.20;;;;;;7840011;28;20738;-89
2023/06/15 13:34:08;;;;;;;6.03;4.13;;;21.50;88.70;;;;;;7840102;28;20229;-89
2023/06/15 13:37:55;;;;;;;5.47;4.00;;;21.40;90.30;;;;;;7841520;28;20190;-88
2023/06/15 13:41:40;;;;;;;5.40;3.78;;;21.50;86.10;;;;;;7835205;28;20182;-88
2023/06/15 13:45:26;;;;;;;6.63;3.85;;;21.50;90.00;;;;;;7814435;28;20207;-89
2023/06/15 13:49:12;;;;;;;5.88;3.55;;;21.60;89.10;;;;;;7841816;28;20198;-89
2023/06/15 13:52:57;;;;;;;8.38;3.50;;;21.80;84.00;;;;;;7840386;28;20185;-88
2023/06/15 13:56:43;;;;;;;4.93;3.58;;;21.90;84.80;;;;;;7841108;28;20186;-89
2023/06/15 14:00:29;;;;;;;5.00;3.25;;;22.00;84.70;;;;;;7840140;28;20178;-88
2023/06/15 14:04:15;;;;;;;7.18;3.78;;;22.10;85.00;;;;;;7830000;28;20202;-89
2023/06/15 14:08:01;;;;;;;5.55;3.28;;;22.20;83.40;;;;;;7840242;28;20671;-90
2023/06/15 14:11:50;;;;;;;6.72;3.50;;;22.20;78.90;;;;;;7847275;28;20770;-90
2023/06/15 14:15:37;;;;;;;8.65;3.10;;;22.30;78.50;;;;;;7840859;28;20198;-90
2023/06/15 14:19:24;;;;;;;4.20;3.20;;;22.40;79.40;;;;;;7839560;28;20651;-90
2023/06/15 14:23:10;;;;;;;8.52;3.22;;;22.50;79.20;;;;;;7839726;28;20196;-89
2023/06/15 14:26:58;;;;;;;3.80;3.20;;;22.50;79.00;;;;;;7844448;28;20178;-88
2023/06/15 14:30:44;;;;;;;6.18;3.40;;;22.40;79.40;;;;;;7835716;28;20229;-89
2023/06/15 14:34:29;;;;;;;4.30;3.05;;;22.50;79.00;;;;;;7886157;28;20221;-89
2023/06/15 14:38:15;;;;;;;4.82;3.05;;;22.50;80.70;;;;;;7886592;28;20181;-89
2023/06/15 14:42:01;;;;;;;6.85;2.88;;;22.60;81.20;;;;;;7887073;28;20195;-89
2023/06/15 14:45:46;;;;;;;5.35;2.90;;;22.70;79.50;;;;;;7872610;28;20206;-90
2023/06/15 14:49:32;;;;;;;4.57;2.70;;;22.60;77.60;;;;;;7838876;28;20221;-89
2023/06/15 14:53:18;;;;;;;4.28;3.00;;;22.40;75.40;;;;;;7819741;28;20587;-89
2023/06/15 14:57:04;;;;;;;5.38;2.92;;;22.20;73.70;;;;;;7811572;28;20180;-89
2023/06/15 15:00:50;;;;;;;5.20;3.20;;;22.10;74.30;;;;;;7839232;28;20284;-89
2023/06/15 15:04:36;;;;;;;5.95;2.75;;;22.00;78.70;;;;;;7838247;28;20201;-88
2023/06/15 15:08:22;;;;;;;7.43;3.25;;;21.90;82.70;;;;;;7837873;28;20343;-89
2023/06/15 15:12:08;;;;;;;7.07;3.30;;;21.90;84.00;;;;;;7837623;28;20221;-89
2023/06/15 15:15:54;;;;;;;7.78;3.33;;;21.90;88.10;;;;;;7838197;28;20223;-88
2023/06/15 15:19:41;;;;;;;4.57;3.30;;;21.90;88.40;;;;;;7836574;28;20416;-89
2023/06/15 15:23:27;;;;;;;6.80;3.00;;;22.20;86.10;;;;;;7837580;28;20198;-89
2023/06/15 15:27:12;;;;;;;8.63;3.83;;;22.20;81.60;;;;;;7836918;28;20477;-89
2023/06/15 15:30:59;;;;;;;4.75;3.40;;;22.40;78.80;;;;;;7837672;28;20198;-89
2023/06/15 15:34:45;;;;;;;6.10;3.40;;;22.40;77.40;;;;;;7838604;28;20196;-89
2023/06/15 15:38:30;;;;;;;3.58;3.13;;;22.50;77.80;;;;;;7836695;28;20408;-89
2023/06/15 15:42:20;;;;;;;3.42;3.13;;;22.80;75.90;;;;;;7837891;28;20181;-89
2023/06/15 15:46:07;;;;;;;4.45;3.05;;;22.70;77.00;;;;;;7853181;28;20202;-89
2023/06/15 15:49:53;;;;;;;6.10;3.22;;;22.80;77.70;;;;;;7837024;28;20628;-88
2023/06/15 15:53:43;;;;;;;7.18;3.65;;;22.80;75.30;;;;;;7837658;28;20278;-90
2023/06/15 15:57:28;;;;;;;5.32;3.20;;;22.60;75.50;;;;;;7833808;28;20546;-89
2023/06/15 16:01:14;;;;;;;4.63;2.97;;;22.60;78.10;;;;;;7827979;28;20181;-90
2023/06/15 16:05:00;;;;;;;4.53;3.50;;;22.70;78.40;;;;;;7836107;28;20209;-89
2023/06/15 16:08:46;;;;;;;4.45;3.60;;;22.70;76.40;;;;;;7836893;28;20190;-89
2023/06/15 16:12:32;;;;;;;3.67;3.13;;;22.70;77.80;;;;;;7837984;28;20220;-89
2023/06/15 16:16:17;;;;;;;7.78;3.60;;;22.80;79.40;;;;;;7828660;28;20213;-89
2023/06/15 16:20:04;;;;;;;4.97;3.47;;;22.80;79.70;;;;;;7825635;28;20272;-87
2023/06/15 16:23:50;;;;;;;4.03;3.17;;;22.70;80.60;;;;;;7819592;28;20411;-89
2023/06/15 16:27:36;;;;;;;4.65;3.55;;;22.70;81.00;;;;;;7836910;28;20235;-89
2023/06/15 16:31:21;;;;;;;8.43;4.40;;;22.70;80.10;;;;;;7836630;28;20197;-90
2023/06/15 16:35:09;;;;;;;5.72;4.60;;;22.70;79.00;;;;;;7837591;28;20273;-89
2023/06/15 16:39:00;;;;;;;6.00;4.10;;;22.70;79.90;;;;;;7839707;28;20237;-89
2023/06/15 16:42:46;;;;;;;11.45;5.95;;;22.70;78.90;;;;;;7837849;28;20174;-90
2023/06/15 16:46:32;;;;;;;5.82;5.22;;;22.70;79.80;;;;;;7844285;28;20279;-90
2023/06/15 16:50:18;;;;;;;6.28;4.40;;;22.80;80.40;;;;;;7837631;28;20198;-90
2023/06/15 16:54:03;;;;;;;10.55;5.18;;;22.90;79.80;;;;;;7837340;28;20198;-90
2023/06/15 16:57:50;;;;;;;11.30;4.55;;;22.90;79.60;;;;;;7837276;28;20189;-90
2023/06/15 17:01:36;;;;;;;6.00;4.57;;;22.90;78.80;;;;;;7837080;28;20182;-90
2023/06/15 17:05:21;;;;;;;4.97;4.47;;;22.90;79.50;;;;;;7838086;28;20312;-90
2023/06/15 17:09:07;;;;;;;5.60;4.47;;;23.00;79.40;;;;;;7839319;28;20178;-90
2023/06/15 17:13:03;;;;;;;13.63;5.03;;;22.90;79.60;;;;;;7838445;28;20170;-90
2023/06/15 17:17:07;;;;;;;5.00;4.10;;;22.80;80.10;;;;;;7837922;28;20769;-91
2023/06/15 17:20:53;;;;;;;6.70;4.72;;;22.80;80.20;;;;;;7843996;28;20647;-90
2023/06/15 17:24:40;;;;;;;5.93;4.47;;;22.80;80.40;;;;;;7851563;28;20580;-89
2023/06/15 17:28:27;;;;;;;10.20;4.72;;;22.80;81.00;;;;;;7843367;28;20205;-90
2023/06/15 17:32:12;;;;;;;7.63;4.40;;;22.80;81.00;;;;;;7843579;28;20247;-89
2023/06/15 17:35:58;;;;;;;6.70;3.85;;;22.70;81.20;;;;;;7841184;28;20202;-89
2023/06/15 17:39:43;;;;;;;10.27;4.63;;;22.70;82.10;;;;;;7840648;28;20536;-89
2023/06/15 17:43:29;;;;;;;6.68;4.28;;;22.70;82.70;;;;;;7842116;28;20197;-89
2023/06/15 17:47:15;;;;;;;7.78;4.30;;;22.70;82.40;;;;;;7840957;28;20174;-90
2023/06/15 17:51:02;;;;;;;4.28;3.60;;;22.70;82.70;;;;;;7840689;28;20285;-89
2023/06/15 17:54:47;;;;;;;5.95;4.15;;;22.70;83.20;;;;;;7840709;28;20217;-90
2023/06/15 17:58:33;;;;;;;4.65;3.65;;;22.70;83.80;;;;;;7841325;28;20256;-89
2023/06/15 18:02:19;;;;;;;4.07;3.65;;;22.70;84.50;;;;;;7840993;28;20178;-89
2023/06/15 18:06:06;;;;;;;3.80;3.40;;;22.70;84.90;;;;;;7840645;28;20213;-89
2023/06/15 18:09:59;;;;;;;4.00;3.60;;;22.80;85.10;;;;;;7841044;28;20632;-89
2023/06/15 18:13:46;;;;;;;4.57;3.13;;;22.80;85.10;;;;;;7841358;28;20285;-90
2023/06/15 18:17:32;;;;;;;3.75;3.38;;;22.80;85.50;;;;;;7841847;28;20174;-90
2023/06/15 18:21:20;;;;;;;6.78;3.33;;;22.80;85.90;;;;;;7839884;28;20188;-90
2023/06/15 18:25:06;;;;;;;6.88;3.80;;;22.80;86.40;;;;;;7839766;28;20198;-91
2023/06/15 18:28:52;;;;;;;5.32;3.30;;;22.70;87.00;;;;;;7839211;28;20174;-90
2023/06/15 18:32:38;;;;;;;6.32;3.70;;;22.60;87.40;;;;;;7840100;28;20206;-90
2023/06/15 18:36:24;;;;;;;3.80;3.33;;;22.60;87.80;;;;;;7839987;28;20233;-90
2023/06/15 18:40:11;;;;;;;5.93;3.50;;;22.50;88.10;;;;;;7839951;28;20182;-90
2023/06/15 18:43:57;;;;;;;4.38;3.50;;;22.50;88.10;;;;;;7839552;28;20259;-90
2023/06/15 18:47:43;;;;;;;6.40;3.53;;;22.50;88.20;;;;;;7840444;28;20214;-90
2023/06/15 18:51:31;;;;;;;5.05;3.40;;;22.40;88.50;;;;;;7839633;28;20197;-89
2023/06/15 18:55:23;;;;;;;9.68;3.67;;;22.30;88.10;;;;;;7839155;28;20297;-90
2023/06/15 18:59:09;;;;;;;4.53;3.35;;;22.30;87.60;;;;;;7838965;28;20174;-90
2023/06/15 19:02:55;;;;;;;8.40;3.90;;;22.20;87.10;;;;;;7838646;28;20170;-89
2023/06/15 19:06:42;;;;;;;5.70;3.53;;;22.00;87.70;;;;;;7838404;28;20240;-88
2023/06/15 19:10:38;;;;;;;4.45;3.40;;;21.90;87.80;;;;;;7837981;28;20205;-90
2023/06/15 19:14:36;;;;;;;4.45;3.50;;;21.90;88.50;;;;;;7838707;28;20201;-91
2023/06/15 19:18:43;;;;;;;4.95;3.47;;;21.90;88.30;;;;;;7838666;28;20227;-91
2023/06/15 19:22:32;;;;;;;4.80;3.00;;;21.90;87.60;;;;;;7838228;28;20192;-90
2023/06/15 19:26:25;;;;;;;4.45;3.38;;;21.80;87.80;;;;;;7836649;28;20292;-92
2023/06/15 19:30:19;;;;;;;6.50;3.10;;;21.70;87.70;;;;;;7838339;28;20194;-92
2023/06/15 19:34:10;;;;;;;4.28;3.15;;;21.70;87.70;;;;;;7840008;28;20662;-91
2023/06/15 19:37:58;;;;;;;7.00;3.60;;;21.70;87.90;;;;;;7845570;28;20172;-92
2023/06/15 19:42:41;;;;;;;7.38;3.40;;;21.50;87.90;;;;;;7840264;28;20660;-92